Terminal Aerodrome Forecast
Issued by NWS

Home | Current Version | Previous Version | Text Only | Print | Product List | Glossary On
Versions: 1 2 3 4 5 6 7 8 9 10 11 12 13 14 15 16 17 18 19
000
FTUS46 KPDT 211300 AAA
TAFBDN
TAF AMD
KBDN 211346Z 2114/2212 21012KT P6SM FEW060
     FM212000 24010G17KT P6SM FEW060 OVC200
     FM220100 VRB05KT P6SM BKN060 OVC120=

USA.gov is the U.S. government's official web portal to all federal, state and local government web resources and services.